sensor_id;sensor_type;location;lat;lon;timestamp;pressure;altitude;pressure_sealevel;temperature;humidity
55070;BME280;40967;52.070;8.596;2023-01-15T00:00:57;98689.53;;;7.24;100.00
55070;BME280;40967;52.070;8.596;2023-01-15T00:03:22;98700.91;;;7.21;100.00
55070;BME280;40967;52.070;8.596;2023-01-15T00:05:48;98709.31;;;7.19;100.00
55070;BME280;40967;52.070;8.596;2023-01-15T00:08:13;98711.25;;;7.14;100.00
55070;BME280;40967;52.070;8.596;2023-01-15T00:10:38;98709.94;;;7.11;100.00
55070;BME280;40967;52.070;8.596;2023-01-15T00:13:04;98697.19;;;6.98;100.00
55070;BME280;40967;52.070;8.596;2023-01-15T00:15:30;98724.38;;;7.02;100.00
55070;BME280;40967;52.070;8.596;2023-01-15T00:17:55;98722.81;;;6.96;100.00
55070;BME280;40967;52.070;8.596;2023-01-15T00:20:20;98729.66;;;6.88;100.00
55070;BME280;40967;52.070;8.596;2023-01-15T00:22:46;98731.25;;;6.65;100.00
55070;BME280;40967;52.070;8.596;2023-01-15T00:25:11;98706.38;;;6.50;100.00
55070;BME280;40967;52.070;8.596;2023-01-15T00:27:55;98736.94;;;6.40;100.00
55070;BME280;40967;52.070;8.596;2023-01-15T00:30:21;98735.44;;;6.29;100.00
55070;BME280;40967;52.070;8.596;2023-01-15T00:32:48;98747.41;;;6.18;100.00
55070;BME280;40967;52.070;8.596;2023-01-15T00:35:19;98754.50;;;6.09;100.00
55070;BME280;40967;52.070;8.596;2023-01-15T00:37:45;98761.22;;;6.07;100.00
55070;BME280;40967;52.070;8.596;2023-01-15T00:40:13;98778.00;;;5.99;100.00
55070;BME280;40967;52.070;8.596;2023-01-15T00:42:39;98773.97;;;5.96;100.00
55070;BME280;40967;52.070;8.596;2023-01-15T00:45:06;98805.50;;;5.96;100.00
55070;BME280;40967;52.070;8.596;2023-01-15T00:47:39;98799.66;;;5.84;100.00
55070;BME280;40967;52.070;8.596;2023-01-15T00:50:08;98795.09;;;5.74;100.00
55070;BME280;40967;52.070;8.596;2023-01-15T00:52:33;98808.84;;;5.72;100.00
55070;BME280;40967;52.070;8.596;2023-01-15T00:54:59;98800.84;;;5.62;100.00
55070;BME280;40967;52.070;8.596;2023-01-15T00:57:24;98806.78;;;5.54;100.00
55070;BME280;40967;52.070;8.596;2023-01-15T00:59:50;98815.75;;;5.45;100.00
55070;BME280;40967;52.070;8.596;2023-01-15T01:02:15;98806.06;;;5.44;100.00
55070;BME280;40967;52.070;8.596;2023-01-15T01:04:41;98799.94;;;5.33;100.00
55070;BME280;40967;52.070;8.596;2023-01-15T01:07:06;98816.88;;;5.34;100.00
55070;BME280;40967;52.070;8.596;2023-01-15T01:09:32;98805.56;;;5.37;100.00
55070;BME280;40967;52.070;8.596;2023-01-15T01:11:57;98837.59;;;5.33;100.00
55070;BME280;40967;52.070;8.596;2023-01-15T01:14:23;98827.97;;;5.22;100.00
55070;BME280;40967;52.070;8.596;2023-01-15T01:16:48;98831.72;;;5.16;100.00
55070;BME280;40967;52.070;8.596;2023-01-15T01:19:18;98831.22;;;5.14;100.00
55070;BME280;40967;52.070;8.596;2023-01-15T01:21:45;98839.03;;;5.11;100.00
55070;BME280;40967;52.070;8.596;2023-01-15T01:24:13;98831.50;;;5.08;100.00
55070;BME280;40967;52.070;8.596;2023-01-15T01:26:39;98821.03;;;5.06;100.00
55070;BME280;40967;52.070;8.596;2023-01-15T01:29:05;98824.81;;;5.05;100.00
55070;BME280;40967;52.070;8.596;2023-01-15T01:31:31;98822.41;;;5.04;100.00
55070;BME280;40967;52.070;8.596;2023-01-15T01:33:57;98818.63;;;5.05;100.00
55070;BME280;40967;52.070;8.596;2023-01-15T01:36:28;98821.03;;;5.06;100.00
55070;BME280;40967;52.070;8.596;2023-01-15T01:38:54;98806.50;;;5.02;100.00
55070;BME280;40967;52.070;8.596;2023-01-15T01:41:19;98803.31;;;5.05;100.00
55070;BME280;40967;52.070;8.596;2023-01-15T01:46:25;98810.03;;;5.03;100.00
55070;BME280;40967;52.070;8.596;2023-01-15T01:48:54;98806.50;;;5.02;100.00
55070;BME280;40967;52.070;8.596;2023-01-15T01:51:21;98825.59;;;5.06;100.00
55070;BME280;40967;52.070;8.596;2023-01-15T01:53:48;98803.03;;;5.02;100.00
55070;BME280;40967;52.070;8.596;2023-01-15T01:56:14;98803.03;;;5.07;100.00
55070;BME280;40967;52.070;8.596;2023-01-15T01:58:46;98799.47;;;5.16;100.00
55070;BME280;40967;52.070;8.596;2023-01-15T02:01:13;98794.94;;;5.12;100.00
55070;BME280;40967;52.070;8.596;2023-01-15T02:03:39;98791.97;;;5.13;100.00
55070;BME280;40967;52.070;8.596;2023-01-15T02:06:08;98794.38;;;5.15;100.00
55070;BME280;40967;52.070;8.596;2023-01-15T02:08:34;98776.94;;;5.02;100.00
55070;BME280;40967;52.070;8.596;2023-01-15T02:11:04;98805.41;;;5.13;100.00
55070;BME280;40967;52.070;8.596;2023-01-15T02:13:39;98805.44;;;5.08;100.00
55070;BME280;40967;52.070;8.596;2023-01-15T02:16:13;98788.50;;;5.03;100.00
55070;BME280;40967;52.070;8.596;2023-01-15T02:19:14;98788.50;;;5.03;100.00
55070;BME280;40967;52.070;8.596;2023-01-15T02:22:05;98782.88;;;4.99;100.00
55070;BME280;40967;52.070;8.596;2023-01-15T02:27:18;98777.50;;;4.99;100.00
55070;BME280;40967;52.070;8.596;2023-01-15T02:32:37;98778.59;;;4.98;100.00
55070;BME280;40967;52.070;8.596;2023-01-15T02:35:27;98762.75;;;4.97;100.00
55070;BME280;40967;52.070;8.596;2023-01-15T02:37:57;98753.63;;;4.93;100.00
55070;BME280;40967;52.070;8.596;2023-01-15T02:40:25;98784.75;;;5.04;100.00
55070;BME280;40967;52.070;8.596;2023-01-15T02:42:52;98780.19;;;5.04;100.00
55070;BME280;40967;52.070;8.596;2023-01-15T02:45:28;98775.06;;;5.03;100.00
55070;BME280;40967;52.070;8.596;2023-01-15T02:47:56;98769.16;;;5.06;100.00
55070;BME280;40967;52.070;8.596;2023-01-15T02:50:26;98776.16;;;5.07;100.00
55070;BME280;40967;52.070;8.596;2023-01-15T02:52:59;98776.69;;;5.04;100.00
55070;BME280;40967;52.070;8.596;2023-01-15T02:55:30;98775.09;;;4.98;100.00
55070;BME280;40967;52.070;8.596;2023-01-15T02:57:59;98774.53;;;5.06;100.00
55070;BME280;40967;52.070;8.596;2023-01-15T03:00:29;98765.94;;;5.09;100.00
55070;BME280;40967;52.070;8.596;2023-01-15T03:03:05;98775.59;;;5.10;100.00
55070;BME280;40967;52.070;8.596;2023-01-15T03:05:39;98767.53;;;5.10;100.00
55070;BME280;40967;52.070;8.596;2023-01-15T03:08:07;98760.31;;;5.00;100.00
55070;BME280;40967;52.070;8.596;2023-01-15T03:13:09;98752.25;;;5.00;100.00
55070;BME280;40967;52.070;8.596;2023-01-15T03:18:27;98745.56;;;4.93;100.00
55070;BME280;40967;52.070;8.596;2023-01-15T03:20:56;98765.38;;;5.12;100.00
55070;BME280;40967;52.070;8.596;2023-01-15T03:23:24;98748.72;;;5.05;100.00
55070;BME280;40967;52.070;8.596;2023-01-15T03:25:51;98768.59;;;5.14;100.00
55070;BME280;40967;52.070;8.596;2023-01-15T03:28:22;98760.53;;;5.14;100.00
55070;BME280;40967;52.070;8.596;2023-01-15T03:30:49;98743.28;;;5.15;100.00
55070;BME280;40967;52.070;8.596;2023-01-15T03:33:16;98759.97;;;5.17;100.00
55070;BME280;40967;52.070;8.596;2023-01-15T03:35:57;98772.84;;;5.20;100.00
55070;BME280;40967;52.070;8.596;2023-01-15T03:38:28;98761.56;;;5.18;100.00
55070;BME280;40967;52.070;8.596;2023-01-15T03:43:55;98746.53;;;5.17;100.00
55070;BME280;40967;52.070;8.596;2023-01-15T03:54:50;98724.47;;;5.15;100.00
55070;BME280;40967;52.070;8.596;2023-01-15T03:57:22;98711.06;;;5.10;100.00
55070;BME280;40967;52.070;8.596;2023-01-15T03:59:55;98709.44;;;5.14;100.00
55070;BME280;40967;52.070;8.596;2023-01-15T04:02:22;98727.13;;;5.20;100.00
55070;BME280;40967;52.070;8.596;2023-01-15T04:04:50;98724.47;;;5.15;100.00
55070;BME280;40967;52.070;8.596;2023-01-15T04:07:17;98729.53;;;5.21;100.00
55070;BME280;40967;52.070;8.596;2023-01-15T04:09:42;98713.47;;;5.11;100.00
55070;BME280;40967;52.070;8.596;2023-01-15T04:12:09;98737.34;;;5.23;100.00
55070;BME280;40967;52.070;8.596;2023-01-15T04:14:34;98718.00;;;5.21;100.00
55070;BME280;40967;52.070;8.596;2023-01-15T04:17:00;98705.66;;;5.15;100.00
55070;BME280;40967;52.070;8.596;2023-01-15T04:19:25;98712.94;;;5.14;100.00
55070;BME280;40967;52.070;8.596;2023-01-15T04:21:50;98715.88;;;5.13;100.00
55070;BME280;40967;52.070;8.596;2023-01-15T04:24:22;98720.69;;;5.21;100.00
55070;BME280;40967;52.070;8.596;2023-01-15T04:26:53;98726.34;;;5.19;100.00
55070;BME280;40967;52.070;8.596;2023-01-15T04:29:43;98722.31;;;5.17;100.00
55070;BME280;40967;52.070;8.596;2023-01-15T04:32:19;98610.63;;;4.52;100.00
55070;BME280;40967;52.070;8.596;2023-01-15T04:34:58;98696.81;;;5.09;100.00
55070;BME280;40967;52.070;8.596;2023-01-15T04:37:23;98716.59;;;5.28;100.00
55070;BME280;40967;52.070;8.596;2023-01-15T04:39:48;98720.09;;;5.29;100.00
55070;BME280;40967;52.070;8.596;2023-01-15T04:42:14;98710.44;;;5.28;100.00
55070;BME280;40967;52.070;8.596;2023-01-15T04:44:58;98696.78;;;5.19;100.00
55070;BME280;40967;52.070;8.596;2023-01-15T04:47:24;98715.00;;;5.27;100.00
55070;BME280;40967;52.070;8.596;2023-01-15T04:49:49;98722.25;;;5.27;100.00
55070;BME280;40967;52.070;8.596;2023-01-15T04:52:15;98717.97;;;5.26;100.00
55070;BME280;40967;52.070;8.596;2023-01-15T04:54:40;98716.09;;;5.26;100.00
55070;BME280;40967;52.070;8.596;2023-01-15T04:57:06;98703.47;;;5.22;100.00
55070;BME280;40967;52.070;8.596;2023-01-15T04:59:31;98719.53;;;5.32;100.00
55070;BME280;40967;52.070;8.596;2023-01-15T05:01:57;98705.34;;;5.26;100.00
55070;BME280;40967;52.070;8.596;2023-01-15T05:04:23;98721.97;;;5.33;100.00
55070;BME280;40967;52.070;8.596;2023-01-15T05:06:48;98725.44;;;5.34;100.00
55070;BME280;40967;52.070;8.596;2023-01-15T05:09:14;98726.25;;;5.34;100.00
55070;BME280;40967;52.070;8.596;2023-01-15T05:11:39;98725.19;;;5.30;100.00
55070;BME280;40967;52.070;8.596;2023-01-15T05:14:05;98718.75;;;5.31;100.00
55070;BME280;40967;52.070;8.596;2023-01-15T05:16:31;98717.13;;;5.30;100.00
55070;BME280;40967;52.070;8.596;2023-01-15T05:18:59;98700.28;;;5.15;100.00
55070;BME280;40967;52.070;8.596;2023-01-15T05:21:28;98706.44;;;5.20;100.00
55070;BME280;40967;52.070;8.596;2023-01-15T05:23:56;98741.28;;;5.35;100.00
55070;BME280;40967;52.070;8.596;2023-01-15T05:26:25;98723.03;;;5.32;100.00
55070;BME280;40967;52.070;8.596;2023-01-15T05:28:54;98724.41;;;5.30;100.00
55070;BME280;40967;52.070;8.596;2023-01-15T05:31:21;98737.25;;;5.38;100.00
55070;BME280;40967;52.070;8.596;2023-01-15T05:33:47;98738.31;;;5.37;100.00
55070;BME280;40967;52.070;8.596;2023-01-15T05:36:16;98733.22;;;5.35;100.00
55070;BME280;40967;52.070;8.596;2023-01-15T05:38:42;98715.53;;;5.29;100.00
55070;BME280;40967;52.070;8.596;2023-01-15T05:41:10;98729.19;;;5.38;100.00
55070;BME280;40967;52.070;8.596;2023-01-15T05:43:55;98737.00;;;5.34;100.00
55070;BME280;40967;52.070;8.596;2023-01-15T05:46:21;98737.56;;;5.31;100.00
55070;BME280;40967;52.070;8.596;2023-01-15T05:48:47;98743.16;;;5.40;100.00
55070;BME280;40967;52.070;8.596;2023-01-15T05:51:13;98739.66;;;5.39;100.00
55070;BME280;40967;52.070;8.596;2023-01-15T05:53:38;98740.47;;;5.40;100.00
55070;BME280;40967;52.070;8.596;2023-01-15T05:56:04;98739.13;;;5.37;100.00
55070;BME280;40967;52.070;8.596;2023-01-15T05:58:30;98747.44;;;5.41;100.00
55070;BME280;40967;52.070;8.596;2023-01-15T06:00:56;98752.31;;;5.34;100.00
55070;BME280;40967;52.070;8.596;2023-01-15T06:03:22;98749.34;;;5.35;100.00
55070;BME280;40967;52.070;8.596;2023-01-15T06:05:52;98748.84;;;5.33;100.00
55070;BME280;40967;52.070;8.596;2023-01-15T06:08:17;98749.59;;;5.39;100.00
55070;BME280;40967;52.070;8.596;2023-01-15T06:10:44;98749.34;;;5.35;100.00
55070;BME280;40967;52.070;8.596;2023-01-15T06:13:09;98747.75;;;5.34;100.00
55070;BME280;40967;52.070;8.596;2023-01-15T06:15:34;98756.63;;;5.35;100.00
55070;BME280;40967;52.070;8.596;2023-01-15T06:18:00;98758.47;;;5.39;100.00
55070;BME280;40967;52.070;8.596;2023-01-15T06:20:25;98749.63;;;5.34;100.00
55070;BME280;40967;52.070;8.596;2023-01-15T06:22:51;98761.41;;;5.43;100.00
55070;BME280;40967;52.070;8.596;2023-01-15T06:25:16;98745.59;;;5.36;100.00
55070;BME280;40967;52.070;8.596;2023-01-15T06:27:42;98737.81;;;5.35;100.00
55070;BME280;40967;52.070;8.596;2023-01-15T06:30:10;98744.19;;;5.44;100.00
55070;BME280;40967;52.070;8.596;2023-01-15T06:32:35;98739.38;;;5.41;100.00
55070;BME280;40967;52.070;8.596;2023-01-15T06:35:01;98750.91;;;5.46;100.00
55070;BME280;40967;52.070;8.596;2023-01-15T06:37:26;98739.38;;;5.41;100.00
55070;BME280;40967;52.070;8.596;2023-01-15T06:39:52;98750.66;;;5.43;100.00
55070;BME280;40967;52.070;8.596;2023-01-15T06:42:17;98743.44;;;5.38;100.00
55070;BME280;40967;52.070;8.596;2023-01-15T06:45:01;98752.28;;;5.39;100.00
55070;BME280;40967;52.070;8.596;2023-01-15T06:47:46;98756.31;;;5.41;100.00
55070;BME280;40967;52.070;8.596;2023-01-15T06:50:13;98756.31;;;5.41;100.00
55070;BME280;40967;52.070;8.596;2023-01-15T06:52:39;98754.69;;;5.40;100.00
55070;BME280;40967;52.070;8.596;2023-01-15T06:55:05;98759.25;;;5.45;100.00
55070;BME280;40967;52.070;8.596;2023-01-15T06:57:31;98744.47;;;5.42;100.00
55070;BME280;40967;52.070;8.596;2023-01-15T06:59:56;98735.63;;;5.37;100.00
55070;BME280;40967;52.070;8.596;2023-01-15T07:02:21;98749.06;;;5.42;100.00
55070;BME280;40967;52.070;8.596;2023-01-15T07:04:47;98752.00;;;5.40;100.00
55070;BME280;40967;52.070;8.596;2023-01-15T07:07:17;98753.91;;;5.40;100.00
55070;BME280;40967;52.070;8.596;2023-01-15T07:09:42;98743.44;;;5.38;100.00
55070;BME280;40967;52.070;8.596;2023-01-15T07:12:08;98747.50;;;5.31;100.00
55070;BME280;40967;52.070;8.596;2023-01-15T07:14:33;98745.34;;;5.33;100.00
55070;BME280;40967;52.070;8.596;2023-01-15T07:16:59;98762.81;;;5.35;100.00
55070;BME280;40967;52.070;8.596;2023-01-15T07:19:24;98759.88;;;5.32;100.00
55070;BME280;40967;52.070;8.596;2023-01-15T07:21:51;98746.16;;;5.28;100.00
55070;BME280;40967;52.070;8.596;2023-01-15T07:24:17;98766.63;;;5.29;100.00
55070;BME280;40967;52.070;8.596;2023-01-15T07:26:44;98763.13;;;5.29;100.00
55070;BME280;40967;52.070;8.596;2023-01-15T07:29:12;98765.00;;;5.33;100.00
55070;BME280;40967;52.070;8.596;2023-01-15T07:31:38;98754.25;;;5.28;100.00
55070;BME280;40967;52.070;8.596;2023-01-15T07:34:04;98757.97;;;5.37;100.00
55070;BME280;40967;52.070;8.596;2023-01-15T07:36:30;98764.16;;;5.38;100.00
55070;BME280;40967;52.070;8.596;2023-01-15T07:38:55;98741.31;;;5.30;100.00
55070;BME280;40967;52.070;8.596;2023-01-15T07:41:20;98759.59;;;5.38;100.00
55070;BME280;40967;52.070;8.596;2023-01-15T07:44:04;98745.34;;;5.33;100.00
55070;BME280;40967;52.070;8.596;2023-01-15T07:46:48;98763.59;;;5.41;100.00
55070;BME280;40967;52.070;8.596;2023-01-15T07:49:32;98761.41;;;5.43;100.00
55070;BME280;40967;52.070;8.596;2023-01-15T07:52:11;98752.00;;;5.40;100.00
55070;BME280;40967;52.070;8.596;2023-01-15T07:54:36;98759.25;;;5.45;100.00
55070;BME280;40967;52.070;8.596;2023-01-15T07:57:02;98751.72;;;5.47;100.00
55070;BME280;40967;52.070;8.596;2023-01-15T07:59:28;98736.44;;;5.37;100.00
55070;BME280;40967;52.070;8.596;2023-01-15T08:01:53;98740.75;;;5.38;100.00
55070;BME280;40967;52.070;8.596;2023-01-15T08:04:19;98764.88;;;5.48;100.00
55070;BME280;40967;52.070;8.596;2023-01-15T08:06:44;98763.25;;;5.47;100.00
55070;BME280;40967;52.070;8.596;2023-01-15T08:09:09;98777.03;;;5.41;100.00
55070;BME280;40967;52.070;8.596;2023-01-15T08:11:38;98771.66;;;5.41;100.00
55070;BME280;40967;52.070;8.596;2023-01-15T08:14:21;98771.63;;;5.46;100.00
55070;BME280;40967;52.070;8.596;2023-01-15T08:17:05;98763.00;;;5.44;100.00
55070;BME280;40967;52.070;8.596;2023-01-15T08:19:31;98772.69;;;5.50;100.00
55070;BME280;40967;52.070;8.596;2023-01-15T08:21:56;98760.84;;;5.46;99.87
55070;BME280;40967;52.070;8.596;2023-01-15T08:24:23;98754.94;;;5.49;99.52
55070;BME280;40967;52.070;8.596;2023-01-15T08:26:48;98734.06;;;5.31;99.35
55070;BME280;40967;52.070;8.596;2023-01-15T08:29:18;98770.50;;;5.52;99.57
55070;BME280;40967;52.070;8.596;2023-01-15T08:31:44;98783.16;;;5.51;99.35
55070;BME280;40967;52.070;8.596;2023-01-15T08:34:09;98786.09;;;5.55;99.28
55070;BME280;40967;52.070;8.596;2023-01-15T08:36:35;98789.31;;;5.57;99.34
55070;BME280;40967;52.070;8.596;2023-01-15T08:39:01;98791.44;;;5.60;99.65
55070;BME280;40967;52.070;8.596;2023-01-15T08:41:26;98787.16;;;5.59;99.13
55070;BME280;40967;52.070;8.596;2023-01-15T08:43:52;98787.69;;;5.61;99.34
55070;BME280;40967;52.070;8.596;2023-01-15T08:46:17;98795.75;;;5.61;98.88
55070;BME280;40967;52.070;8.596;2023-01-15T08:48:42;98783.31;;;5.65;98.70
55070;BME280;40967;52.070;8.596;2023-01-15T08:51:10;98786.53;;;5.67;98.31
55070;BME280;40967;52.070;8.596;2023-01-15T08:53:35;98775.78;;;5.67;98.26
55070;BME280;40967;52.070;8.596;2023-01-15T08:56:01;98779.81;;;5.69;96.66
55070;BME280;40967;52.070;8.596;2023-01-15T08:58:31;98773.41;;;5.60;95.30
55070;BME280;40967;52.070;8.596;2023-01-15T09:01:04;98795.97;;;5.69;93.94
55070;BME280;40967;52.070;8.596;2023-01-15T09:03:30;98772.88;;;5.58;93.45
55070;BME280;40967;52.070;8.596;2023-01-15T09:05:58;98794.38;;;5.63;93.56
55070;BME280;40967;52.070;8.596;2023-01-15T09:08:23;98801.63;;;5.68;92.38
55070;BME280;40967;52.070;8.596;2023-01-15T09:10:49;98789.75;;;5.69;90.97
55070;BME280;40967;52.070;8.596;2023-01-15T09:13:14;98801.91;;;5.61;90.41
55070;BME280;40967;52.070;8.596;2023-01-15T09:15:40;98799.47;;;5.65;90.12
55070;BME280;40967;52.070;8.596;2023-01-15T09:18:05;98794.41;;;5.58;89.99
55070;BME280;40967;52.070;8.596;2023-01-15T09:20:30;98810.25;;;5.60;89.22
55070;BME280;40967;52.070;8.596;2023-01-15T09:22:56;98813.53;;;5.57;89.88
55070;BME280;40967;52.070;8.596;2023-01-15T09:25:21;98810.84;;;5.57;89.22
55070;BME280;40967;52.070;8.596;2023-01-15T09:27:49;98817.81;;;5.58;90.30
55070;BME280;40967;52.070;8.596;2023-01-15T09:30:19;98801.19;;;5.46;89.61
55070;BME280;40967;52.070;8.596;2023-01-15T09:32:44;98814.13;;;5.49;89.75
55070;BME280;40967;52.070;8.596;2023-01-15T09:35:10;98807.09;;;5.48;89.87
55070;BME280;40967;52.070;8.596;2023-01-15T09:37:35;98807.06;;;5.53;90.96
55070;BME280;40967;52.070;8.596;2023-01-15T09:40:01;98805.47;;;5.52;90.57
55070;BME280;40967;52.070;8.596;2023-01-15T09:47:47;98820.03;;;5.46;90.83
55070;BME280;40967;52.070;8.596;2023-01-15T09:55:51;98806.63;;;5.41;91.46
55070;BME280;40967;52.070;8.596;2023-01-15T09:58:20;98821.69;;;5.42;91.14
55070;BME280;40967;52.070;8.596;2023-01-15T10:00:50;98802.31;;;5.40;91.31
55070;BME280;40967;52.070;8.596;2023-01-15T10:08:43;98805.25;;;5.43;92.34
55070;BME280;40967;52.070;8.596;2023-01-15T10:13:47;98798.50;;;5.46;91.65
55070;BME280;40967;52.070;8.596;2023-01-15T10:16:21;98819.44;;;5.59;91.91
55070;BME280;40967;52.070;8.596;2023-01-15T10:18:47;98811.56;;;5.67;91.58
55070;BME280;40967;52.070;8.596;2023-01-15T10:26:53;98806.81;;;5.98;89.38
55070;BME280;40967;52.070;8.596;2023-01-15T10:29:43;98792.66;;;6.16;88.15
55070;BME280;40967;52.070;8.596;2023-01-15T10:37:36;98801.53;;;6.45;85.09
55070;BME280;40967;52.070;8.596;2023-01-15T10:42:54;98805.69;;;6.61;82.76
55070;BME280;40967;52.070;8.596;2023-01-15T10:45:53;98796.22;;;6.64;81.00
55070;BME280;40967;52.070;8.596;2023-01-15T10:51:25;98782.28;;;6.57;78.01
55070;BME280;40967;52.070;8.596;2023-01-15T10:54:05;98796.97;;;6.69;77.67
55070;BME280;40967;52.070;8.596;2023-01-15T10:56:50;98787.47;;;6.77;78.19
55070;BME280;40967;52.070;8.596;2023-01-15T10:59:21;98789.81;;;6.83;77.51
55070;BME280;40967;52.070;8.596;2023-01-15T11:01:52;98784.13;;;6.85;76.80
55070;BME280;40967;52.070;8.596;2023-01-15T11:04:18;98773.78;;;6.73;76.44
55070;BME280;40967;52.070;8.596;2023-01-15T11:06:44;98789.59;;;6.80;76.72
55070;BME280;40967;52.070;8.596;2023-01-15T11:09:24;98787.72;;;6.80;75.13
55070;BME280;40967;52.070;8.596;2023-01-15T11:14:59;98767.28;;;6.74;74.56
55070;BME280;40967;52.070;8.596;2023-01-15T11:17:44;98783.22;;;6.71;73.26
55070;BME280;40967;52.070;8.596;2023-01-15T11:22:56;98789.41;;;6.71;72.71
55070;BME280;40967;52.070;8.596;2023-01-15T11:25:29;98783.00;;;6.67;74.04
55070;BME280;40967;52.070;8.596;2023-01-15T11:27:57;98776.22;;;6.70;73.58
55070;BME280;40967;52.070;8.596;2023-01-15T11:30:29;98781.41;;;6.66;73.65
55070;BME280;40967;52.070;8.596;2023-01-15T11:32:58;98794.41;;;6.59;72.93
55070;BME280;40967;52.070;8.596;2023-01-15T11:35:24;98796.00;;;6.60;73.23
55070;BME280;40967;52.070;8.596;2023-01-15T11:38:01;98787.91;;;6.60;73.65
55070;BME280;40967;52.070;8.596;2023-01-15T11:40:27;98785.50;;;6.59;72.89
55070;BME280;40967;52.070;8.596;2023-01-15T11:42:52;98793.59;;;6.59;73.62
55070;BME280;40967;52.070;8.596;2023-01-15T11:45:49;98789.81;;;6.60;73.49
55070;BME280;40967;52.070;8.596;2023-01-15T11:48:45;98783.03;;;6.62;74.19
55070;BME280;40967;52.070;8.596;2023-01-15T11:51:31;98785.91;;;6.71;74.58
55070;BME280;40967;52.070;8.596;2023-01-15T11:54:03;98776.41;;;6.78;74.46
55070;BME280;40967;52.070;8.596;2023-01-15T11:56:33;98759.78;;;6.71;74.55
55070;BME280;40967;52.070;8.596;2023-01-15T11:59:09;98789.81;;;6.83;74.93
55070;BME280;40967;52.070;8.596;2023-01-15T12:01:37;98779.09;;;6.78;73.95
55070;BME280;40967;52.070;8.596;2023-01-15T12:04:26;98785.59;;;6.77;74.37
55070;BME280;40967;52.070;8.596;2023-01-15T12:06:53;98780.75;;;6.74;74.72
55070;BME280;40967;52.070;8.596;2023-01-15T12:20:10;98775.78;;;6.63;74.38
55070;BME280;40967;52.070;8.596;2023-01-15T12:25:19;98784.72;;;6.58;73.63
55070;BME280;40967;52.070;8.596;2023-01-15T12:30:31;98768.97;;;6.70;74.10
55070;BME280;40967;52.070;8.596;2023-01-15T12:35:52;98777.75;;;6.81;73.85
55070;BME280;40967;52.070;8.596;2023-01-15T12:38:58;98749.44;;;6.78;73.79
55070;BME280;40967;52.070;8.596;2023-01-15T12:41:29;98769.44;;;6.72;71.73
55070;BME280;40967;52.070;8.596;2023-01-15T12:44:20;98797.44;;;6.76;72.25
55070;BME280;40967;52.070;8.596;2023-01-15T12:47:19;98761.66;;;6.71;72.49
55070;BME280;40967;52.070;8.596;2023-01-15T12:49:50;98749.56;;;6.68;72.86
55070;BME280;40967;52.070;8.596;2023-01-15T12:52:21;98762.25;;;6.68;71.89
55070;BME280;40967;52.070;8.596;2023-01-15T12:57:38;98769.81;;;6.66;71.82
55070;BME280;40967;52.070;8.596;2023-01-15T13:00:25;98756.91;;;6.63;72.85
55070;BME280;40967;52.070;8.596;2023-01-15T13:05:55;98764.72;;;6.64;71.08
55070;BME280;40967;52.070;8.596;2023-01-15T13:08:29;98763.34;;;6.67;71.43
55070;BME280;40967;52.070;8.596;2023-01-15T13:10:57;98761.72;;;6.66;71.88
55070;BME280;40967;52.070;8.596;2023-01-15T13:13:25;98778.19;;;6.64;72.58
55070;BME280;40967;52.070;8.596;2023-01-15T13:16:39;98776.59;;;6.63;72.79
55070;BME280;40967;52.070;8.596;2023-01-15T13:21:15;98760.97;;;6.60;73.11
55070;BME280;40967;52.070;8.596;2023-01-15T13:24:11;98762.13;;;6.54;72.67
55070;BME280;40967;52.070;8.596;2023-01-15T13:37:06;98760.91;;;6.65;72.96
55070;BME280;40967;52.070;8.596;2023-01-15T13:39:39;98755.25;;;6.67;73.54
55070;BME280;40967;52.070;8.596;2023-01-15T13:42:24;98757.13;;;6.66;73.59
55070;BME280;40967;52.070;8.596;2023-01-15T13:44:58;98770.03;;;6.69;72.74
55070;BME280;40967;52.070;8.596;2023-01-15T13:47:30;98757.66;;;6.68;72.69
55070;BME280;40967;52.070;8.596;2023-01-15T13:50:02;98753.56;;;6.71;72.56
55070;BME280;40967;52.070;8.596;2023-01-15T13:52:31;98753.56;;;6.71;72.55
55070;BME280;40967;52.070;8.596;2023-01-15T13:55:19;98764.88;;;6.73;72.13
55070;BME280;40967;52.070;8.596;2023-01-15T13:57:45;98775.66;;;6.73;72.00
55070;BME280;40967;52.070;8.596;2023-01-15T14:02:53;98780.81;;;6.69;72.33
55070;BME280;40967;52.070;8.596;2023-01-15T14:07:51;98783.22;;;6.71;72.02
55070;BME280;40967;52.070;8.596;2023-01-15T14:18:46;98785.75;;;6.62;72.50
55070;BME280;40967;52.070;8.596;2023-01-15T14:35:00;98799.28;;;6.57;72.94
55070;BME280;40967;52.070;8.596;2023-01-15T14:40:18;98806.81;;;6.55;73.03
55070;BME280;40967;52.070;8.596;2023-01-15T14:42:46;98799.03;;;6.54;73.27
55070;BME280;40967;52.070;8.596;2023-01-15T14:45:38;98814.44;;;6.48;74.13
55070;BME280;40967;52.070;8.596;2023-01-15T14:50:54;98807.16;;;6.49;73.75
55070;BME280;40967;52.070;8.596;2023-01-15T14:53:42;98823.63;;;6.47;74.29
55070;BME280;40967;52.070;8.596;2023-01-15T14:56:20;98820.41;;;6.45;73.81
55070;BME280;40967;52.070;8.596;2023-01-15T15:06:56;98837.66;;;6.44;74.26
55070;BME280;40967;52.070;8.596;2023-01-15T15:12:26;98834.97;;;6.44;74.15
55070;BME280;40967;52.070;8.596;2023-01-15T15:20:23;98860.84;;;6.40;74.38
55070;BME280;40967;52.070;8.596;2023-01-15T15:22:55;98851.19;;;6.39;74.42
55070;BME280;40967;52.070;8.596;2023-01-15T15:25:24;98845.78;;;6.39;74.72
55070;BME280;40967;52.070;8.596;2023-01-15T15:28:02;98849.56;;;6.38;75.04
55070;BME280;40967;52.070;8.596;2023-01-15T15:30:31;98836.94;;;6.34;74.54
55070;BME280;40967;52.070;8.596;2023-01-15T15:32:59;98847.97;;;6.37;74.81
55070;BME280;40967;52.070;8.596;2023-01-15T15:35:27;98860.38;;;6.33;74.92
55070;BME280;40967;52.070;8.596;2023-01-15T15:37:53;98855.28;;;6.32;75.31
55070;BME280;40967;52.070;8.596;2023-01-15T15:40:24;98877.09;;;6.30;74.99
55070;BME280;40967;52.070;8.596;2023-01-15T15:43:11;98875.19;;;6.31;76.07
55070;BME280;40967;52.070;8.596;2023-01-15T15:45:57;98864.19;;;6.27;76.05
55070;BME280;40967;52.070;8.596;2023-01-15T15:48:43;98870.38;;;6.28;75.97
55070;BME280;40967;52.070;8.596;2023-01-15T15:51:36;98865.84;;;6.23;75.95
55070;BME280;40967;52.070;8.596;2023-01-15T15:56:31;98871.19;;;6.28;74.88